createdAt,value
2023-02-15T00:00:46.610Z,86.91
2023-02-15T00:01:46.746Z,87.99
2023-02-15T00:02:46.719Z,85.94
2023-02-15T00:03:46.713Z,86.84
2023-02-15T00:04:46.790Z,86.50
2023-02-15T00:05:46.857Z,84.21
2023-02-15T00:06:46.903Z,81.54
2023-02-15T00:07:46.935Z,85.28
2023-02-15T00:08:47.021Z,87.06
2023-02-15T00:09:47.016Z,84.96
2023-02-15T00:10:47.110Z,84.47
2023-02-15T00:11:47.110Z,86.57
2023-02-15T00:12:47.157Z,81.79
2023-02-15T00:13:47.216Z,85.54
2023-02-15T00:14:47.242Z,84.02
2023-02-15T00:15:47.307Z,83.77
2023-02-15T00:16:47.369Z,77.54
2023-02-15T00:17:47.370Z,84.44
2023-02-15T00:18:47.456Z,81.92
2023-02-15T00:19:47.497Z,82.34
2023-02-15T00:20:47.556Z,79.44
2023-02-15T00:21:47.603Z,78.10
2023-02-15T00:22:47.685Z,80.40
2023-02-15T00:23:47.759Z,80.82
2023-02-15T00:24:47.758Z,79.99
2023-02-15T00:25:47.848Z,80.38
2023-02-15T00:26:47.867Z,76.79
2023-02-15T00:27:47.964Z,80.77
2023-02-15T00:28:47.999Z,79.47
2023-02-15T00:29:48.048Z,80.00
2023-02-15T00:30:48.214Z,81.70
2023-02-15T00:31:48.187Z,80.38
2023-02-15T00:32:48.261Z,79.94
2023-02-15T00:33:48.299Z,80.14
2023-02-15T00:34:48.354Z,77.52
2023-02-15T00:35:48.407Z,80.35
2023-02-15T00:36:48.468Z,82.00
2023-02-15T00:37:48.507Z,81.91
2023-02-15T00:38:48.586Z,76.19
2023-02-15T00:39:48.629Z,81.94
2023-02-15T00:40:48.711Z,80.30
2023-02-15T00:41:48.754Z,79.54
2023-02-15T00:42:48.762Z,78.70
2023-02-15T00:43:48.807Z,78.10
2023-02-15T00:44:48.813Z,77.63
2023-02-15T00:45:48.905Z,78.47
2023-02-15T00:46:48.956Z,75.67
2023-02-15T00:47:49.016Z,75.35
2023-02-15T00:48:49.016Z,79.52
2023-02-15T00:49:49.062Z,76.06
2023-02-15T00:50:49.124Z,75.01
2023-02-15T00:51:49.144Z,76.28
2023-02-15T00:52:49.201Z,72.87
2023-02-15T00:53:49.245Z,77.13
2023-02-15T00:54:49.320Z,74.98
2023-02-15T00:55:49.350Z,75.34
2023-02-15T00:56:49.419Z,77.83
2023-02-15T00:57:49.438Z,78.39
2023-02-15T00:58:49.524Z,74.51
2023-02-15T00:59:49.544Z,76.39
2023-02-15T01:00:49.591Z,75.78
2023-02-15T01:01:49.713Z,77.19
2023-02-15T01:02:49.701Z,76.95
2023-02-15T01:03:49.745Z,77.77
2023-02-15T01:04:49.783Z,76.46
2023-02-15T01:05:49.854Z,78.50
2023-02-15T01:06:49.895Z,73.77
2023-02-15T01:07:49.930Z,77.74
2023-02-15T01:08:50.015Z,75.50
2023-02-15T01:09:50.073Z,78.15
2023-02-15T01:10:50.128Z,74.53
2023-02-15T01:11:50.169Z,75.22
2023-02-15T01:12:50.203Z,76.21
2023-02-15T01:13:50.253Z,75.13
2023-02-15T01:14:50.317Z,73.67
2023-02-15T01:15:50.364Z,76.92
2023-02-15T01:16:50.409Z,74.24
2023-02-15T01:17:50.434Z,74.73
2023-02-15T01:18:50.530Z,72.47
2023-02-15T01:19:50.534Z,77.81
2023-02-15T01:20:50.603Z,72.38
2023-02-15T01:21:50.643Z,72.96
2023-02-15T01:22:50.686Z,74.36
2023-02-15T01:23:50.769Z,75.96
2023-02-15T01:24:50.836Z,75.64
2023-02-15T01:25:50.892Z,72.28
2023-02-15T01:26:50.947Z,76.64
2023-02-15T01:27:50.986Z,70.37
2023-02-15T01:28:51.035Z,72.15
2023-02-15T01:29:51.098Z,70.91
2023-02-15T01:30:51.252Z,72.37
2023-02-15T01:31:51.315Z,73.98
2023-02-15T01:32:52.239Z,71.80
2023-02-15T01:33:51.306Z,70.35
2023-02-15T01:34:51.370Z,70.45
2023-02-15T01:35:51.419Z,71.10
2023-02-15T01:41:51.699Z,70.16
2023-02-15T01:42:51.752Z,68.55
2023-02-15T01:43:51.795Z,69.27
2023-02-15T01:44:51.838Z,71.97
2023-02-15T01:45:51.866Z,68.00
2023-02-15T01:46:51.895Z,69.58
2023-02-15T01:47:51.926Z,69.60
2023-02-15T01:48:51.988Z,68.77
2023-02-15T01:49:52.040Z,69.99
2023-02-15T01:50:52.080Z,67.11
2023-02-15T01:51:52.095Z,68.24
2023-02-15T01:52:52.112Z,69.14
2023-02-15T01:54:52.176Z,68.60
2023-02-15T01:55:52.266Z,68.64
2023-02-15T01:56:52.287Z,67.64
2023-02-15T01:58:52.365Z,66.30
2023-02-15T02:00:52.455Z,65.75
2023-02-15T02:01:52.551Z,67.98
2023-02-15T02:02:52.510Z,65.09
2023-02-15T02:08:52.749Z,62.12
2023-02-15T02:09:52.773Z,62.08
2023-02-15T02:10:52.771Z,65.53
2023-02-15T02:11:52.790Z,62.95
2023-02-15T02:12:52.839Z,65.25
2023-02-15T02:13:52.869Z,63.35
2023-02-15T02:14:52.919Z,63.59
2023-02-15T02:15:52.998Z,59.29
2023-02-15T02:16:52.949Z,65.05
2023-02-15T02:17:52.980Z,63.68
2023-02-15T02:18:52.999Z,61.91
2023-02-15T02:19:53.036Z,61.02
2023-02-15T02:20:53.090Z,58.53
2023-02-15T02:21:53.608Z,61.19
2023-02-15T02:22:53.520Z,60.72
2023-02-15T02:23:53.227Z,59.22
2023-02-15T02:24:53.287Z,56.17
2023-02-15T02:25:53.338Z,61.89
2023-02-15T02:26:53.394Z,57.93
2023-02-15T02:27:53.430Z,60.28
2023-02-15T02:28:53.462Z,57.41
2023-02-15T02:29:53.572Z,56.91
2023-02-15T02:30:53.757Z,56.78
2023-02-15T02:31:53.630Z,56.84
2023-02-15T02:32:53.645Z,55.25
2023-02-15T02:33:53.676Z,59.39
2023-02-15T02:34:53.759Z,59.47
2023-02-15T02:35:53.814Z,56.75
2023-02-15T02:36:53.895Z,58.08
2023-02-15T02:37:53.905Z,56.13
2023-02-15T02:38:53.996Z,59.18
2023-02-15T02:39:54.030Z,56.17
2023-02-15T02:40:54.072Z,55.44
2023-02-15T02:41:54.163Z,55.46
2023-02-15T02:42:54.231Z,54.54
2023-02-15T02:43:54.246Z,57.88
2023-02-15T02:44:54.267Z,54.91
2023-02-15T02:45:54.347Z,55.03
2023-02-15T02:46:54.394Z,56.27
2023-02-15T02:47:54.438Z,54.16
2023-02-15T02:48:54.521Z,53.13
2023-02-15T02:49:54.556Z,55.14
2023-02-15T02:50:54.584Z,55.39
2023-02-15T02:51:54.702Z,54.40
2023-02-15T02:52:54.705Z,55.56
2023-02-15T02:53:54.791Z,54.18
2023-02-15T02:54:54.819Z,54.59
2023-02-15T02:55:54.923Z,53.77
2023-02-15T02:56:54.905Z,53.56
2023-02-15T02:57:54.944Z,52.39
2023-02-15T02:58:54.981Z,51.53
2023-02-15T02:59:55.018Z,55.42
2023-02-15T03:00:55.051Z,48.84
2023-02-15T03:01:55.099Z,52.00
2023-02-15T03:02:55.153Z,51.62
2023-02-15T03:03:55.142Z,53.31
2023-02-15T03:04:55.177Z,49.74
2023-02-15T03:05:55.214Z,52.13
2023-02-15T03:06:55.218Z,51.64
2023-02-15T03:07:55.267Z,47.10
2023-02-15T03:08:55.272Z,49.65
2023-02-15T03:09:55.297Z,48.15
2023-02-15T03:10:55.324Z,49.10
2023-02-15T03:11:55.361Z,49.67
2023-02-15T03:12:55.392Z,48.40
2023-02-15T03:13:55.382Z,48.25
2023-02-15T03:14:55.424Z,49.53
2023-02-15T03:15:55.520Z,48.98
2023-02-15T03:16:55.477Z,47.75
2023-02-15T03:17:55.503Z,46.75
2023-02-15T03:18:55.543Z,50.28
2023-02-15T03:19:55.560Z,47.74
2023-02-15T03:20:55.577Z,49.67
2023-02-15T03:21:55.603Z,47.47
2023-02-15T03:22:55.626Z,47.20
2023-02-15T03:23:55.626Z,49.40
2023-02-15T03:24:55.681Z,47.36
2023-02-15T03:25:55.680Z,46.79
2023-02-15T03:26:55.689Z,51.46
2023-02-15T03:27:55.709Z,48.13
2023-02-15T03:28:55.734Z,45.97
2023-02-15T03:29:55.756Z,46.85
2023-02-15T03:30:55.800Z,48.78
2023-02-15T03:31:56.040Z,46.73
2023-02-15T03:32:55.826Z,47.24
2023-02-15T03:33:55.845Z,49.62
2023-02-15T03:34:55.860Z,46.53
2023-02-15T03:35:55.880Z,46.97
2023-02-15T03:36:55.897Z,47.52
2023-02-15T03:37:56.000Z,45.66
2023-02-15T03:38:56.006Z,44.21
2023-02-15T03:39:56.028Z,47.15
2023-02-15T03:40:56.016Z,48.76
2023-02-15T03:41:56.112Z,44.95
2023-02-15T03:42:56.103Z,49.95
2023-02-15T03:43:56.135Z,47.31
2023-02-15T03:44:56.183Z,47.00
2023-02-15T03:45:56.202Z,45.00
2023-02-15T03:46:56.285Z,45.01
2023-02-15T03:47:56.269Z,44.64
2023-02-15T03:48:56.292Z,46.88
2023-02-15T03:49:56.312Z,45.06
2023-02-15T03:50:56.349Z,44.17
2023-02-15T03:51:56.391Z,48.84
2023-02-15T03:52:56.476Z,47.17
2023-02-15T03:53:56.539Z,46.39
2023-02-15T03:54:56.558Z,45.58
2023-02-15T03:55:56.608Z,45.70
2023-02-15T03:56:56.701Z,48.36
2023-02-15T03:57:56.764Z,43.54
2023-02-15T03:58:56.807Z,46.48
2023-02-15T03:59:56.828Z,46.73
2023-02-15T04:00:56.912Z,46.18
2023-02-15T04:01:56.968Z,46.76
2023-02-15T04:02:57.007Z,43.60
2023-02-15T04:03:57.037Z,45.68
2023-02-15T04:04:57.069Z,44.46
2023-02-15T04:05:57.101Z,42.53
2023-02-15T04:06:57.154Z,42.95
2023-02-15T04:07:57.183Z,47.10
2023-02-15T04:08:57.257Z,45.80
2023-02-15T04:09:57.291Z,44.42
2023-02-15T04:10:57.329Z,44.31
2023-02-15T04:11:57.352Z,41.72
2023-02-15T04:12:57.408Z,44.54
2023-02-15T04:13:57.534Z,49.23
2023-02-15T04:14:57.476Z,41.43
2023-02-15T04:15:57.589Z,45.65
2023-02-15T04:16:57.564Z,45.42
2023-02-15T04:17:57.576Z,44.19
2023-02-15T04:18:57.627Z,46.89
2023-02-15T04:19:57.666Z,43.25
2023-02-15T04:20:57.724Z,46.09
2023-02-15T04:21:57.774Z,47.04
2023-02-15T04:22:57.809Z,46.71
2023-02-15T04:23:57.840Z,45.43
2023-02-15T04:24:57.849Z,45.45
2023-02-15T04:25:57.904Z,43.75
2023-02-15T04:26:57.959Z,45.09
2023-02-15T04:27:58.009Z,45.40
2023-02-15T04:28:58.017Z,46.42
2023-02-15T04:29:58.157Z,48.93
2023-02-15T04:30:58.109Z,46.41
2023-02-15T04:31:58.177Z,49.14
2023-02-15T04:32:58.174Z,49.51
2023-02-15T04:33:58.151Z,47.81
2023-02-15T04:34:58.196Z,50.22
2023-02-15T04:35:58.262Z,48.96
2023-02-15T04:36:58.252Z,50.12
2023-02-15T04:37:58.286Z,45.46
2023-02-15T04:38:58.294Z,47.45
2023-02-15T04:39:58.318Z,52.13
2023-02-15T04:40:58.342Z,49.18
2023-02-15T04:41:58.373Z,49.31
2023-02-15T04:42:58.379Z,53.22
2023-02-15T04:43:58.429Z,50.21
2023-02-15T04:44:58.428Z,46.57
2023-02-15T04:45:58.490Z,51.42
2023-02-15T04:46:58.501Z,50.57
2023-02-15T04:47:58.530Z,49.99
2023-02-15T04:48:58.574Z,47.71
2023-02-15T04:49:58.581Z,52.43
2023-02-15T04:50:58.630Z,52.51
2023-02-15T04:51:58.628Z,47.83
2023-02-15T04:52:58.692Z,51.84
2023-02-15T04:53:58.689Z,49.53
2023-02-15T04:54:58.707Z,47.17
2023-02-15T04:55:58.745Z,53.73
2023-02-15T04:56:58.757Z,51.31
2023-02-15T04:57:58.817Z,52.25
2023-02-15T04:58:58.833Z,50.59
2023-02-15T04:59:58.857Z,49.69
2023-02-15T05:00:58.907Z,49.71
2023-02-15T05:01:58.900Z,49.84
2023-02-15T05:02:58.966Z,53.03
2023-02-15T05:03:58.999Z,49.98
2023-02-15T05:04:58.992Z,52.12
2023-02-15T05:05:59.045Z,49.92
2023-02-15T05:06:59.066Z,49.19
2023-02-15T05:07:59.083Z,50.06
2023-02-15T05:08:59.121Z,48.26
2023-02-15T05:09:59.158Z,49.51
2023-02-15T05:10:59.189Z,49.27
2023-02-15T05:11:59.229Z,46.65
2023-02-15T05:12:59.237Z,48.82
2023-02-15T05:13:59.291Z,50.53
2023-02-15T05:14:59.276Z,48.13
2023-02-15T05:15:59.467Z,50.71
2023-02-15T05:16:59.359Z,49.66
2023-02-15T05:17:59.426Z,44.61
2023-02-15T05:19:59.471Z,48.39
2023-02-15T05:20:59.514Z,48.07
2023-02-15T05:21:59.545Z,46.13
2023-02-15T05:22:59.563Z,46.09
2023-02-15T05:23:59.620Z,45.78
2023-02-15T05:24:59.630Z,49.16
2023-02-15T05:26:00.003Z,45.89
2023-02-15T05:26:59.737Z,45.50
2023-02-15T05:27:59.744Z,49.00
2023-02-15T05:33:59.976Z,47.63
2023-02-15T05:34:59.997Z,45.43
2023-02-15T05:36:01.930Z,46.69
2023-02-15T05:37:00.070Z,45.96
2023-02-15T05:38:00.127Z,47.37
2023-02-15T05:39:00.144Z,48.54
2023-02-15T05:41:00.212Z,45.36
2023-02-15T05:42:00.259Z,45.28
2023-02-15T05:44:00.304Z,46.21
2023-02-15T05:45:00.332Z,47.67
2023-02-15T05:47:00.394Z,44.35
2023-02-15T05:48:00.439Z,46.44
2023-02-15T05:49:00.493Z,46.72
2023-02-15T05:50:00.530Z,48.17
2023-02-15T06:01:07.813Z,49.78
2023-02-15T06:02:00.920Z,50.02
2023-02-15T06:03:01.142Z,50.15
2023-02-15T06:04:00.878Z,49.80
2023-02-15T06:05:00.837Z,45.41
2023-02-15T06:06:01.150Z,49.43
2023-02-15T06:07:00.870Z,47.04
2023-02-15T06:09:00.847Z,46.57
2023-02-15T06:10:00.856Z,48.46
2023-02-15T06:11:00.870Z,48.03
2023-02-15T06:12:00.875Z,48.64
2023-02-15T06:13:00.856Z,47.73
2023-02-15T06:14:00.840Z,47.21
2023-02-15T06:15:00.861Z,44.53
2023-02-15T06:16:01.253Z,47.41
2023-02-15T06:17:00.843Z,47.34
2023-02-15T06:18:00.830Z,47.58
2023-02-15T06:19:00.824Z,48.88
2023-02-15T06:20:00.821Z,48.53
2023-02-15T06:21:00.840Z,47.25
2023-02-15T06:22:00.820Z,45.71
2023-02-15T06:23:00.819Z,47.47
2023-02-15T06:24:00.817Z,48.10
2023-02-15T06:25:00.793Z,48.18
2023-02-15T06:26:01.264Z,49.64
2023-02-15T06:27:00.752Z,47.41
2023-02-15T06:28:00.774Z,47.46
2023-02-15T06:29:00.787Z,49.81
2023-02-15T06:30:00.781Z,48.55
2023-02-15T06:31:00.861Z,50.14
2023-02-15T06:32:00.835Z,48.94
2023-02-15T06:33:00.747Z,49.44
2023-02-15T06:34:00.756Z,49.33
2023-02-15T06:35:00.742Z,49.44
2023-02-15T06:36:01.007Z,49.47
2023-02-15T06:37:00.728Z,48.93
2023-02-15T06:38:00.724Z,48.50
2023-02-15T06:39:00.753Z,49.12
2023-02-15T06:40:03.515Z,52.60
2023-02-15T06:41:00.734Z,51.29
2023-02-15T06:42:00.722Z,54.86
2023-02-15T06:43:00.735Z,48.51
2023-02-15T06:44:00.750Z,52.54
2023-02-15T06:45:00.739Z,53.36
2023-02-15T06:46:07.687Z,54.26
2023-02-15T06:47:00.719Z,54.76
2023-02-15T06:48:00.712Z,54.98
2023-02-15T06:49:00.734Z,54.82
2023-02-15T06:50:00.751Z,56.18
2023-02-15T06:51:00.705Z,56.21
2023-02-15T06:52:00.706Z,58.16
2023-02-15T06:53:00.709Z,52.70
2023-02-15T06:54:00.693Z,55.50
2023-02-15T06:55:00.662Z,56.94
2023-02-15T06:56:01.040Z,56.38
2023-02-15T06:57:00.679Z,51.70
2023-02-15T06:58:00.684Z,55.92
2023-02-15T06:59:00.656Z,56.34
2023-02-15T07:00:00.661Z,57.35
2023-02-15T07:01:00.624Z,56.15
2023-02-15T07:02:00.648Z,56.26
2023-02-15T07:03:00.628Z,59.04
2023-02-15T07:04:00.624Z,58.50
2023-02-15T07:05:00.688Z,56.54
2023-02-15T07:06:00.924Z,57.17
2023-02-15T07:07:00.597Z,57.40
2023-02-15T07:08:00.571Z,55.74
2023-02-15T07:09:00.612Z,56.41
2023-02-15T07:10:00.615Z,54.67
2023-02-15T07:11:00.538Z,58.39
2023-02-15T07:12:00.592Z,58.40
2023-02-15T07:13:00.606Z,59.64
2023-02-15T07:14:00.582Z,59.31
2023-02-15T07:15:00.554Z,58.54
2023-02-15T07:16:00.798Z,55.23
2023-02-15T07:17:00.540Z,58.60
2023-02-15T07:18:00.574Z,57.45
2023-02-15T07:19:00.581Z,61.96
2023-02-15T07:20:00.553Z,58.06
2023-02-15T07:21:00.527Z,59.68
2023-02-15T07:22:00.536Z,60.72
2023-02-15T07:23:00.536Z,62.10
2023-02-15T07:24:00.559Z,61.11
2023-02-15T07:25:00.556Z,62.76
2023-02-15T07:26:01.010Z,56.84
2023-02-15T07:27:00.560Z,61.88
2023-02-15T07:28:00.544Z,64.41
2023-02-15T07:29:00.548Z,61.54
2023-02-15T07:30:00.596Z,64.67
2023-02-15T07:31:00.578Z,64.81
2023-02-15T07:32:00.629Z,61.64
2023-02-15T07:33:01.120Z,65.90
2023-02-15T07:34:00.602Z,63.66
2023-02-15T07:35:00.632Z,62.37
2023-02-15T07:36:00.953Z,63.67
2023-02-15T07:37:00.665Z,65.36
2023-02-15T07:38:00.695Z,67.49
2023-02-15T07:39:00.701Z,64.57
2023-02-15T07:40:00.741Z,67.55
2023-02-15T07:41:00.769Z,70.34
2023-02-15T07:42:00.790Z,69.40
2023-02-15T07:43:00.815Z,72.99
2023-02-15T07:44:00.838Z,71.69
2023-02-15T07:45:00.856Z,72.59
2023-02-15T07:46:01.226Z,72.93
2023-02-15T07:47:00.854Z,75.13
2023-02-15T07:48:00.883Z,73.22
2023-02-15T07:49:00.905Z,77.58
2023-02-15T07:50:00.907Z,75.87
2023-02-15T07:51:00.923Z,77.01
2023-02-15T07:52:00.947Z,76.87
2023-02-15T07:53:00.949Z,80.56
2023-02-15T07:54:00.992Z,78.78
2023-02-15T07:55:00.979Z,76.36
2023-02-15T07:56:01.432Z,78.14
2023-02-15T07:57:01.038Z,76.59
2023-02-15T07:58:01.014Z,78.72
2023-02-15T07:59:01.049Z,78.44
2023-02-15T08:00:01.072Z,79.08
2023-02-15T08:01:01.105Z,78.34
2023-02-15T08:02:01.128Z,79.24
2023-02-15T08:03:01.310Z,78.56
2023-02-15T08:04:01.323Z,78.51
2023-02-15T08:05:01.232Z,80.34
2023-02-15T08:06:01.558Z,81.63
2023-02-15T08:07:01.277Z,84.52
2023-02-15T08:08:01.316Z,80.49
2023-02-15T08:09:01.328Z,80.27
2023-02-15T08:10:01.392Z,78.80
2023-02-15T08:11:01.401Z,80.97
2023-02-15T08:12:01.448Z,81.76
2023-02-15T08:13:01.500Z,79.38
2023-02-15T08:14:01.532Z,79.19
2023-02-15T08:15:01.570Z,80.13
2023-02-15T08:16:01.958Z,81.86
2023-02-15T08:17:01.608Z,80.99
2023-02-15T08:18:01.651Z,79.12
2023-02-15T08:19:01.698Z,83.06
2023-02-15T08:20:01.741Z,85.47
2023-02-15T08:21:01.792Z,82.92
2023-02-15T08:22:01.801Z,82.97
2023-02-15T08:23:01.888Z,82.78
2023-02-15T08:24:01.885Z,81.08
2023-02-15T08:25:01.918Z,83.76
2023-02-15T08:26:02.250Z,82.89
2023-02-15T08:27:02.000Z,84.54
2023-02-15T08:28:02.030Z,84.29
2023-02-15T08:29:02.052Z,81.08
2023-02-15T08:30:02.141Z,79.36
2023-02-15T08:31:02.458Z,81.62
2023-02-15T08:32:02.223Z,83.25
2023-02-15T08:33:02.141Z,81.36
2023-02-15T08:34:02.182Z,83.33
2023-02-15T08:35:02.223Z,75.89
2023-02-15T08:36:02.236Z,80.24
2023-02-15T08:37:02.268Z,80.39
2023-02-15T08:38:02.322Z,79.22
2023-02-15T08:39:02.351Z,80.19
2023-02-15T08:40:02.357Z,78.97
2023-02-15T08:41:02.730Z,81.95
2023-02-15T08:42:02.416Z,78.84
2023-02-15T08:43:02.424Z,81.31
2023-02-15T08:44:02.454Z,75.53
2023-02-15T08:45:02.474Z,74.29
2023-02-15T08:46:02.550Z,78.48
2023-02-15T08:47:02.522Z,77.35
2023-02-15T08:48:02.551Z,76.92
2023-02-15T08:49:02.571Z,74.64
2023-02-15T08:50:02.562Z,78.68
2023-02-15T08:51:02.959Z,74.05
2023-02-15T08:52:02.651Z,75.61
2023-02-15T08:53:02.662Z,74.55
2023-02-15T08:54:02.708Z,72.05
2023-02-15T08:55:02.697Z,73.96
2023-02-15T08:56:02.785Z,72.24
2023-02-15T08:57:02.789Z,72.93
2023-02-15T08:58:02.801Z,71.79
2023-02-15T08:59:03.307Z,72.48
2023-02-15T09:00:02.853Z,74.05
2023-02-15T09:01:03.186Z,71.80
2023-02-15T09:02:02.972Z,67.96
2023-02-15T09:03:02.881Z,69.17
2023-02-15T09:04:02.934Z,66.81
2023-02-15T09:05:03.950Z,67.14
2023-02-15T09:06:02.940Z,68.08
2023-02-15T09:07:02.994Z,69.91
2023-02-15T09:08:03.005Z,69.61
2023-02-15T09:09:03.049Z,63.98
2023-02-15T09:10:03.045Z,68.95
2023-02-15T09:11:03.555Z,68.81
2023-02-15T09:12:03.070Z,69.59
2023-02-15T09:13:03.180Z,67.51
2023-02-15T09:14:03.126Z,68.70
2023-02-15T09:15:03.202Z,65.47
2023-02-15T09:16:03.169Z,68.61
2023-02-15T09:17:03.195Z,67.82
2023-02-15T09:18:03.192Z,68.04
2023-02-15T09:19:03.245Z,69.93
2023-02-15T09:20:03.238Z,67.39
2023-02-15T09:21:03.574Z,68.29
2023-02-15T09:22:03.262Z,67.72
2023-02-15T09:23:03.257Z,67.77
2023-02-15T09:24:03.325Z,65.18
2023-02-15T09:25:03.287Z,66.67
2023-02-15T09:26:03.297Z,67.67
2023-02-15T09:27:03.343Z,64.24
2023-02-15T09:28:03.411Z,63.58
2023-02-15T09:29:03.371Z,65.94
2023-02-15T09:30:03.467Z,64.59
2023-02-15T09:31:03.804Z,63.91
2023-02-15T09:32:03.469Z,67.73
2023-02-15T09:33:03.394Z,68.20
2023-02-15T09:34:03.394Z,66.45
2023-02-15T09:35:03.420Z,66.55
2023-02-15T09:36:03.421Z,66.35
2023-02-15T09:37:03.411Z,65.04
2023-02-15T09:38:03.483Z,67.63
2023-02-15T09:39:03.477Z,66.07
2023-02-15T09:40:03.498Z,67.27
2023-02-15T09:41:03.850Z,68.76
2023-02-15T09:42:03.505Z,65.64
2023-02-15T09:43:03.526Z,66.91
2023-02-15T09:44:03.549Z,65.53
2023-02-15T09:45:03.565Z,68.09
2023-02-15T09:46:03.634Z,67.65
2023-02-15T09:47:03.560Z,67.57
2023-02-15T09:48:03.572Z,69.39
2023-02-15T09:49:03.569Z,66.85
2023-02-15T09:50:03.585Z,65.58
2023-02-15T09:51:04.018Z,67.70
2023-02-15T09:52:03.593Z,67.74
2023-02-15T09:53:03.609Z,66.14
2023-02-15T09:54:03.626Z,67.41
2023-02-15T09:55:03.630Z,67.14
2023-02-15T09:56:03.664Z,68.24
2023-02-15T09:57:03.662Z,68.07
2023-02-15T09:58:03.635Z,66.49
2023-02-15T09:59:03.654Z,65.17
2023-02-15T10:00:03.655Z,65.28
2023-02-15T10:01:04.037Z,66.87
2023-02-15T10:02:03.645Z,66.35
2023-02-15T10:03:05.906Z,65.10
2023-02-15T10:04:03.676Z,66.10
2023-02-15T10:05:03.691Z,64.75
2023-02-15T10:06:03.703Z,64.47
2023-02-15T10:07:03.694Z,66.40
2023-02-15T10:08:03.726Z,65.97
2023-02-15T10:09:03.717Z,65.06
2023-02-15T10:10:03.740Z,64.27
2023-02-15T10:11:04.002Z,64.40
2023-02-15T10:12:03.757Z,61.99
2023-02-15T10:13:03.736Z,65.17
2023-02-15T10:14:03.743Z,64.50
2023-02-15T10:15:03.792Z,62.48
2023-02-15T10:16:03.786Z,63.25
2023-02-15T10:17:03.830Z,61.99
2023-02-15T10:18:03.770Z,62.14
2023-02-15T10:19:03.786Z,60.73
2023-02-15T10:20:03.818Z,61.23
2023-02-15T10:21:04.295Z,60.46
2023-02-15T10:22:03.844Z,62.56
2023-02-15T10:23:03.885Z,59.54
2023-02-15T10:24:03.856Z,60.39
2023-02-15T10:25:03.870Z,59.48
2023-02-15T10:26:04.237Z,59.28
2023-02-15T10:27:03.835Z,57.84
2023-02-15T10:28:03.996Z,60.68
2023-02-15T10:29:03.862Z,61.56
2023-02-15T10:30:03.893Z,58.87
2023-02-15T10:31:04.266Z,59.89
2023-02-15T10:32:03.983Z,60.65
2023-02-15T10:33:03.930Z,59.59
2023-02-15T10:34:03.947Z,58.67
2023-02-15T10:35:03.930Z,59.96
2023-02-15T10:36:03.929Z,58.32
2023-02-15T10:37:03.980Z,60.69
2023-02-15T10:38:03.952Z,58.59
2023-02-15T10:39:03.974Z,57.72
2023-02-15T10:40:03.971Z,56.72
2023-02-15T10:41:04.368Z,56.14
2023-02-15T10:42:04.019Z,56.39
2023-02-15T10:43:04.015Z,56.02
2023-02-15T10:44:04.023Z,57.98
2023-02-15T10:45:04.032Z,55.88
2023-02-15T10:46:04.112Z,56.61
2023-02-15T10:47:04.063Z,58.91
2023-02-15T10:48:04.055Z,56.79
2023-02-15T10:49:04.055Z,56.00
2023-02-15T10:50:04.086Z,56.12
2023-02-15T10:51:04.432Z,56.92
2023-02-15T10:52:04.078Z,57.12
2023-02-15T10:53:04.090Z,55.07
2023-02-15T10:54:04.151Z,55.58
2023-02-15T10:55:04.152Z,56.07
2023-02-15T10:56:04.162Z,55.01
2023-02-15T10:57:04.116Z,53.16
2023-02-15T10:58:04.178Z,53.87
2023-02-15T10:59:04.164Z,55.78
2023-02-15T11:00:04.171Z,54.26
2023-02-15T11:01:04.363Z,55.86
2023-02-15T11:02:04.158Z,54.89
2023-02-15T11:03:04.156Z,55.15
2023-02-15T11:04:04.171Z,54.22
2023-02-15T11:05:04.196Z,55.08
2023-02-15T11:06:04.179Z,57.03
2023-02-15T11:07:04.182Z,53.36
2023-02-15T11:08:04.154Z,53.42
2023-02-15T11:09:04.151Z,54.48
2023-02-15T11:10:04.213Z,52.20
2023-02-15T11:11:04.483Z,53.69
2023-02-15T11:12:04.209Z,53.41
2023-02-15T11:13:04.179Z,52.22
2023-02-15T11:14:04.195Z,52.53
2023-02-15T11:15:04.208Z,52.63
2023-02-15T11:16:04.254Z,51.24
2023-02-15T11:17:04.254Z,52.12
2023-02-15T11:18:04.209Z,52.69
2023-02-15T11:19:04.220Z,51.59
2023-02-15T11:20:04.207Z,49.17
2023-02-15T11:21:04.560Z,46.93
2023-02-15T11:22:04.222Z,48.00
2023-02-15T11:23:04.221Z,48.84
2023-02-15T11:24:04.241Z,49.40
2023-02-15T11:25:04.247Z,45.97
2023-02-15T11:26:04.242Z,47.29
2023-02-15T11:27:04.267Z,47.25
2023-02-15T11:28:04.254Z,45.81
2023-02-15T11:29:04.251Z,42.13
2023-02-15T11:30:04.348Z,45.57
2023-02-15T11:31:04.748Z,45.05
2023-02-15T11:32:04.423Z,43.44
2023-02-15T11:33:06.858Z,43.35
2023-02-15T11:34:04.233Z,47.03
2023-02-15T11:35:04.219Z,45.25
2023-02-15T11:36:04.190Z,44.27
2023-02-15T11:37:04.204Z,45.12
2023-02-15T11:38:04.142Z,42.40
2023-02-15T11:39:04.130Z,42.88
2023-02-15T11:40:04.102Z,42.90
2023-02-15T11:41:04.463Z,42.35
2023-02-15T11:42:04.039Z,42.53
2023-02-15T11:43:04.030Z,40.35
2023-02-15T11:44:03.980Z,41.99
2023-02-15T11:45:03.981Z,41.03
2023-02-15T11:46:04.003Z,40.62
2023-02-15T11:47:03.944Z,41.15
2023-02-15T11:48:03.918Z,38.80
2023-02-15T11:49:03.897Z,38.21
2023-02-15T11:50:03.852Z,40.63
2023-02-15T11:51:04.233Z,37.72
2023-02-15T11:52:03.846Z,37.80
2023-02-15T11:53:03.786Z,36.71
2023-02-15T11:54:03.791Z,36.24
2023-02-15T11:55:03.752Z,36.79
2023-02-15T11:56:03.715Z,37.75
2023-02-15T11:57:03.710Z,38.78
2023-02-15T11:58:03.641Z,35.29
2023-02-15T11:59:03.641Z,38.34
2023-02-15T12:00:03.620Z,37.33
2023-02-15T12:01:04.040Z,37.66
2023-02-15T12:02:03.576Z,37.10
2023-02-15T12:03:03.617Z,36.95
2023-02-15T12:04:03.601Z,35.70
2023-02-15T12:05:03.509Z,36.05
2023-02-15T12:06:03.497Z,33.93
2023-02-15T12:07:03.481Z,34.19
2023-02-15T12:08:03.429Z,34.27
2023-02-15T12:09:03.437Z,32.36
2023-02-15T12:10:03.420Z,35.53
2023-02-15T12:11:03.700Z,34.68
2023-02-15T12:12:03.371Z,33.15
2023-02-15T12:13:03.346Z,34.08
2023-02-15T12:14:03.309Z,33.26
2023-02-15T12:15:03.274Z,34.40
2023-02-15T12:16:03.292Z,34.64
2023-02-15T12:17:03.263Z,30.87
2023-02-15T12:18:03.212Z,32.12
2023-02-15T12:19:03.213Z,30.76
2023-02-15T12:20:03.188Z,32.74
2023-02-15T12:21:03.445Z,33.26
2023-02-15T12:22:03.108Z,32.09
2023-02-15T12:23:03.126Z,31.75
2023-02-15T12:24:03.108Z,32.46
2023-02-15T12:25:03.114Z,30.14
2023-02-15T12:26:03.058Z,30.90
2023-02-15T12:27:03.026Z,31.56
2023-02-15T12:28:02.994Z,31.08
2023-02-15T12:29:02.968Z,29.48
2023-02-15T12:30:03.031Z,30.02
2023-02-15T12:31:03.305Z,29.17
2023-02-15T12:32:03.024Z,29.81
2023-02-15T12:33:02.869Z,32.34
2023-02-15T12:34:02.857Z,31.74
2023-02-15T12:35:02.853Z,29.98
2023-02-15T12:36:03.260Z,29.32
2023-02-15T12:37:02.835Z,30.10
2023-02-15T12:38:02.823Z,26.52
2023-02-15T12:39:02.818Z,28.06
2023-02-15T12:40:02.798Z,26.92
2023-02-15T12:41:03.161Z,26.52
2023-02-15T12:42:02.762Z,27.91
2023-02-15T12:43:08.940Z,26.87
2023-02-15T12:44:03.767Z,27.10
2023-02-15T12:45:02.708Z,27.01
2023-02-15T12:46:02.868Z,27.13
2023-02-15T12:47:02.676Z,24.99
2023-02-15T12:48:02.641Z,25.09
2023-02-15T12:49:02.630Z,27.74
2023-02-15T12:50:02.576Z,29.09
2023-02-15T12:51:02.591Z,27.64
2023-02-15T12:52:02.553Z,29.03
2023-02-15T12:53:02.578Z,29.13
2023-02-15T12:54:02.483Z,28.68
2023-02-15T12:55:02.501Z,28.18
2023-02-15T12:56:02.488Z,28.56
2023-02-15T12:57:02.494Z,26.21
2023-02-15T12:58:02.429Z,25.00
2023-02-15T12:59:02.434Z,26.37
2023-02-15T13:00:02.445Z,26.76
2023-02-15T13:01:02.748Z,26.23
2023-02-15T13:02:02.364Z,28.64
2023-02-15T13:03:02.353Z,26.17
2023-02-15T13:04:02.434Z,28.86
2023-02-15T13:05:02.398Z,30.01
2023-02-15T13:06:02.412Z,28.86
2023-02-15T13:07:02.397Z,28.29
2023-02-15T13:08:02.471Z,27.80
2023-02-15T13:09:02.464Z,27.74
2023-02-15T13:10:02.485Z,28.32
2023-02-15T13:11:02.835Z,27.70
2023-02-15T13:12:02.483Z,26.60
2023-02-15T13:13:02.517Z,25.58
2023-02-15T13:14:02.492Z,27.66
2023-02-15T13:15:02.534Z,27.65
2023-02-15T13:16:02.565Z,29.01
2023-02-15T13:17:02.517Z,29.33
2023-02-15T13:18:02.525Z,26.13
2023-02-15T13:19:02.513Z,28.28
2023-02-15T13:20:02.506Z,25.14
2023-02-15T13:21:02.878Z,26.99
2023-02-15T13:22:02.566Z,26.65
2023-02-15T13:23:02.555Z,27.34
2023-02-15T13:24:02.616Z,27.86
2023-02-15T13:25:02.562Z,28.90
2023-02-15T13:26:02.615Z,26.34